Time;durP1;ratioP1;P1;durP2;ratioP2;P2;SDS_P1;SDS_P2;PMS_P1;PMS_P2;Temp;Humidity;BMP_temperature;BMP_pressure;BME280_temperature;BME280_humidity;BME280_pressure;Samples;Min_cycle;Max_cycle;Signal;HPM_P1;HPM_P2
2023/09/16 00:01:21;;;;;;;10.47;9.47;;;18.60;99.90;;;;;;4966410;28;20181;-69
2023/09/16 00:03:47;;;;;;;12.70;11.60;;;18.60;99.90;;;;;;4966330;28;20455;-70
2023/09/16 00:06:12;;;;;;;12.30;11.10;;;18.50;99.90;;;;;;4966322;28;20582;-69
2023/09/16 00:08:39;;;;;;;13.60;11.20;;;18.50;99.90;;;;;;4964597;28;20280;-68
2023/09/16 00:11:05;;;;;;;11.87;10.87;;;18.50;99.90;;;;;;4964828;28;20181;-70
2023/09/16 00:13:30;;;;;;;12.57;11.37;;;18.60;99.90;;;;;;4967188;28;20777;-69
2023/09/16 00:15:57;;;;;;;11.17;10.17;;;18.60;99.90;;;;;;4966453;28;20546;-68
2023/09/16 00:18:22;;;;;;;12.43;11.33;;;18.70;99.90;;;;;;4965651;28;20193;-70
2023/09/16 00:20:48;;;;;;;12.80;11.70;;;18.70;99.90;;;;;;4965709;28;20499;-70
2023/09/16 00:23:14;;;;;;;12.40;11.20;;;18.80;99.90;;;;;;4966192;28;20223;-70
2023/09/16 00:25:40;;;;;;;12.10;11.00;;;18.80;99.90;;;;;;4966586;28;20498;-69
2023/09/16 00:28:06;;;;;;;13.10;11.90;;;18.80;99.90;;;;;;4966336;28;20916;-70
2023/09/16 00:30:32;;;;;;;11.67;10.67;;;18.80;99.90;;;;;;4966486;28;20177;-70
2023/09/16 00:32:58;;;;;;;12.03;10.87;;;18.80;99.90;;;;;;4966904;28;20524;-72
2023/09/16 00:35:23;;;;;;;11.67;10.57;;;18.80;99.90;;;;;;4966731;28;20463;-70
2023/09/16 00:37:49;;;;;;;13.63;12.33;;;18.80;99.90;;;;;;4967274;28;20819;-70
2023/09/16 00:40:15;;;;;;;13.70;12.47;;;18.70;99.90;;;;;;4967137;28;20189;-69
2023/09/16 00:42:40;;;;;;;13.27;11.63;;;18.60;99.90;;;;;;4967542;28;20370;-72
2023/09/16 00:45:10;;;;;;;12.63;11.30;;;18.40;99.90;;;;;;4966653;28;20197;-70
2023/09/16 00:47:36;;;;;;;10.87;9.87;;;18.40;99.90;;;;;;4966495;28;20189;-70
2023/09/16 00:50:07;;;;;;;15.40;13.03;;;18.30;99.90;;;;;;4966494;28;20718;-72
2023/09/16 00:52:33;;;;;;;12.90;11.70;;;18.40;99.90;;;;;;4966201;28;20408;-70
2023/09/16 00:54:59;;;;;;;12.40;11.30;;;18.40;99.90;;;;;;4966318;28;20416;-69
2023/09/16 00:57:25;;;;;;;12.37;11.27;;;18.30;99.90;;;;;;4965984;28;20463;-70
2023/09/16 00:59:50;;;;;;;11.97;10.77;;;18.40;99.90;;;;;;4965697;28;20658;-70
2023/09/16 01:02:17;;;;;;;12.53;11.03;;;18.40;99.90;;;;;;4966455;28;20188;-72
2023/09/16 01:04:43;;;;;;;13.23;11.93;;;18.30;99.90;;;;;;4966010;28;20291;-72
2023/09/16 01:07:09;;;;;;;12.13;10.93;;;18.30;99.90;;;;;;4965111;28;20444;-71
2023/09/16 01:09:35;;;;;;;11.13;9.97;;;18.30;99.90;;;;;;4965971;28;20491;-71
2023/09/16 01:12:01;;;;;;;14.60;12.20;;;18.20;99.90;;;;;;4966748;28;20589;-71
2023/09/16 01:14:27;;;;;;;12.30;10.83;;;18.20;99.90;;;;;;4965682;28;20498;-71
2023/09/16 01:17:17;;;;;;;13.37;11.93;;;18.20;99.90;;;;;;4966278;28;20305;-71
2023/09/16 01:19:57;;;;;;;11.97;10.77;;;18.10;99.90;;;;;;4979624;28;20272;-71
2023/09/16 01:22:23;;;;;;;11.77;10.67;;;18.10;99.90;;;;;;4964390;28;20985;-71
2023/09/16 01:24:52;;;;;;;11.53;10.53;;;18.00;99.90;;;;;;4964656;28;20424;-71
2023/09/16 01:27:18;;;;;;;14.30;11.17;;;18.00;99.90;;;;;;4964799;28;20463;-71
2023/09/16 01:29:44;;;;;;;12.60;11.50;;;17.90;99.90;;;;;;4964475;28;20424;-71
2023/09/16 01:32:10;;;;;;;12.43;11.33;;;17.80;99.90;;;;;;4964813;28;20197;-72
2023/09/16 01:34:49;;;;;;;12.00;10.90;;;17.90;99.90;;;;;;4964875;28;20428;-71
2023/09/16 01:37:19;;;;;;;12.00;10.90;;;17.90;99.90;;;;;;4964482;28;20459;-70
2023/09/16 01:39:49;;;;;;;12.37;9.53;;;17.90;99.90;;;;;;4963722;28;20416;-71
2023/09/16 01:42:16;;;;;;;10.90;9.97;;;18.00;99.90;;;;;;4963960;28;20439;-70
2023/09/16 01:44:41;;;;;;;10.43;9.53;;;18.00;99.90;;;;;;4964591;28;20408;-71
2023/09/16 01:47:07;;;;;;;10.23;9.33;;;18.00;99.90;;;;;;4964345;28;20479;-71
2023/09/16 01:49:32;;;;;;;11.50;10.30;;;18.10;99.90;;;;;;4964464;28;20181;-71
2023/09/16 01:51:59;;;;;;;11.70;10.70;;;18.00;99.90;;;;;;4964286;28;21307;-72
2023/09/16 01:54:25;;;;;;;11.20;10.30;;;18.00;99.90;;;;;;4964005;28;20283;-70
2023/09/16 01:56:51;;;;;;;10.93;9.83;;;17.90;99.90;;;;;;4964021;28;21027;-71
2023/09/16 01:59:16;;;;;;;10.23;9.40;;;17.80;99.90;;;;;;4962198;28;20377;-71
2023/09/16 02:01:43;;;;;;;11.40;10.37;;;17.90;99.90;;;;;;4964225;28;20207;-71
2023/09/16 02:04:09;;;;;;;9.73;8.77;;;17.90;99.90;;;;;;4964132;28;20174;-71
2023/09/16 02:06:34;;;;;;;10.70;9.80;;;18.00;99.90;;;;;;4963600;28;20429;-70
2023/09/16 02:09:00;;;;;;;11.10;9.70;;;18.10;99.90;;;;;;4963915;28;20177;-71
2023/09/16 02:11:25;;;;;;;10.93;9.90;;;18.20;99.90;;;;;;4963598;28;20213;-70
2023/09/16 02:13:51;;;;;;;11.40;10.47;;;18.20;99.90;;;;;;4962198;28;20224;-71
2023/09/16 02:16:17;;;;;;;9.93;9.03;;;18.20;99.90;;;;;;4963485;28;20221;-71
2023/09/16 02:18:42;;;;;;;11.37;10.27;;;18.20;99.90;;;;;;4963836;28;20208;-71
2023/09/16 02:21:08;;;;;;;10.33;9.43;;;18.20;99.90;;;;;;4963736;28;20322;-71
2023/09/16 02:23:34;;;;;;;12.50;11.40;;;18.10;99.90;;;;;;4963696;28;20180;-71
2023/09/16 02:26:02;;;;;;;12.53;11.30;;;18.10;99.90;;;;;;4963890;28;20543;-71
2023/09/16 02:28:28;;;;;;;10.87;9.87;;;18.20;99.90;;;;;;4963541;28;20188;-71
2023/09/16 02:30:54;;;;;;;11.70;10.70;;;18.10;99.90;;;;;;4962299;28;20851;-70
2023/09/16 02:33:20;;;;;;;11.80;10.70;;;18.10;99.90;;;;;;4963630;28;20515;-71
2023/09/16 02:35:46;;;;;;;10.87;9.77;;;18.10;99.90;;;;;;4963886;28;20208;-71
2023/09/16 02:38:11;;;;;;;12.53;11.33;;;18.10;99.90;;;;;;4963353;28;20209;-71
2023/09/16 02:40:41;;;;;;;11.10;10.17;;;18.10;99.90;;;;;;4963381;28;20264;-71
2023/09/16 02:43:07;;;;;;;10.67;9.77;;;18.10;99.90;;;;;;4963634;28;20173;-71
2023/09/16 02:45:38;;;;;;;10.67;9.60;;;18.00;99.90;;;;;;4963218;28;20449;-71
2023/09/16 02:48:04;;;;;;;11.23;10.13;;;18.00;99.90;;;;;;4963267;28;20405;-71
2023/09/16 02:50:39;;;;;;;11.50;10.40;;;17.90;99.90;;;;;;4963455;28;20427;-71
2023/09/16 02:53:05;;;;;;;11.30;10.30;;;17.90;99.90;;;;;;4962857;28;20196;-70
2023/09/16 02:55:34;;;;;;;12.70;11.50;;;17.80;99.90;;;;;;4963094;28;20441;-70
2023/09/16 02:58:00;;;;;;;13.00;11.70;;;17.70;99.90;;;;;;4962783;28;20456;-71
2023/09/16 03:00:26;;;;;;;10.30;9.40;;;17.70;99.90;;;;;;4963112;28;20447;-71
2023/09/16 03:02:51;;;;;;;13.97;12.57;;;17.80;99.90;;;;;;4965071;28;20884;-71
2023/09/16 03:05:17;;;;;;;10.67;9.67;;;17.80;99.90;;;;;;4963833;28;20193;-70
2023/09/16 03:07:46;;;;;;;11.80;10.57;;;17.90;99.90;;;;;;4963755;28;20220;-70
2023/09/16 03:10:12;;;;;;;10.53;9.53;;;17.90;99.90;;;;;;4964238;28;20448;-71
2023/09/16 03:12:37;;;;;;;10.53;9.63;;;17.90;99.90;;;;;;4963203;28;20463;-71
2023/09/16 03:15:04;;;;;;;12.70;11.50;;;17.80;99.90;;;;;;4963030;28;20181;-70
2023/09/16 03:17:29;;;;;;;11.83;10.67;;;17.90;99.90;;;;;;4962751;28;20209;-70
2023/09/16 03:19:55;;;;;;;11.40;10.30;;;17.90;99.90;;;;;;4963963;28;20427;-72
2023/09/16 03:22:21;;;;;;;13.97;12.70;;;17.90;99.90;;;;;;4963442;28;20184;-70
2023/09/16 03:24:48;;;;;;;13.40;12.07;;;17.90;99.90;;;;;;4964462;28;20424;-70
2023/09/16 03:27:13;;;;;;;10.70;9.70;;;17.90;99.90;;;;;;4966871;28;20268;-70
2023/09/16 03:29:39;;;;;;;13.20;12.03;;;17.90;99.90;;;;;;4966192;28;20496;-70
2023/09/16 03:32:05;;;;;;;11.20;10.20;;;17.90;99.90;;;;;;4966795;28;20185;-70
2023/09/16 03:34:30;;;;;;;13.17;10.87;;;17.80;99.90;;;;;;4966938;28;20184;-70
2023/09/16 03:36:56;;;;;;;12.83;11.53;;;17.70;99.90;;;;;;4966502;28;20284;-71
2023/09/16 03:39:21;;;;;;;11.00;10.00;;;17.80;99.90;;;;;;4966950;28;20208;-69
2023/09/16 03:41:47;;;;;;;13.50;12.20;;;17.70;99.90;;;;;;4966709;28;20188;-70
2023/09/16 03:44:14;;;;;;;12.80;11.60;;;17.70;99.90;;;;;;4966295;28;20228;-71
2023/09/16 03:46:40;;;;;;;12.80;11.70;;;17.70;99.90;;;;;;5006108;23;20286;-73
2023/09/16 03:49:05;;;;;;;11.50;10.50;;;17.70;99.90;;;;;;4972194;28;20934;-78
2023/09/16 03:51:35;;;;;;;13.87;12.50;;;17.80;99.90;;;;;;4980285;28;20227;-75
2023/09/16 03:54:04;;;;;;;11.47;10.30;;;17.80;99.90;;;;;;4973900;28;20480;-74
2023/09/16 03:56:30;;;;;;;12.70;11.47;;;17.80;99.90;;;;;;4984837;28;20440;-76
2023/09/16 03:58:55;;;;;;;12.33;11.23;;;17.80;99.90;;;;;;4967873;28;20464;-76
2023/09/16 04:01:21;;;;;;;13.90;12.70;;;17.80;99.90;;;;;;4968056;28;20260;-74
2023/09/16 04:03:47;;;;;;;12.10;11.00;;;17.70;99.90;;;;;;4968676;28;20184;-76
2023/09/16 04:06:12;;;;;;;13.60;12.30;;;17.70;99.90;;;;;;4968094;28;20197;-75
2023/09/16 04:08:38;;;;;;;13.57;12.37;;;17.60;99.90;;;;;;4968189;28;20324;-75
2023/09/16 04:11:03;;;;;;;12.27;11.17;;;17.60;99.90;;;;;;4968316;28;20177;-77
2023/09/16 04:13:29;;;;;;;13.00;11.80;;;17.60;99.90;;;;;;4966461;28;20256;-77
2023/09/16 04:15:55;;;;;;;12.17;11.00;;;17.70;99.90;;;;;;4968860;28;20236;-75
2023/09/16 04:18:20;;;;;;;14.60;13.20;;;17.70;99.90;;;;;;4966591;28;20822;-76
2023/09/16 04:20:55;;;;;;;13.77;12.40;;;17.60;99.90;;;;;;4968184;28;20181;-75
2023/09/16 04:23:23;;;;;;;12.10;11.00;;;17.60;99.90;;;;;;4967743;28;20168;-75
2023/09/16 04:25:56;;;;;;;13.73;12.10;;;17.60;99.90;;;;;;4968765;28;20463;-76
2023/09/16 04:28:22;;;;;;;13.77;12.50;;;17.60;99.90;;;;;;4968777;28;20748;-75
2023/09/16 04:30:49;;;;;;;14.47;13.17;;;17.60;99.90;;;;;;4966660;28;20424;-77
2023/09/16 04:33:19;;;;;;;15.83;14.43;;;17.60;99.90;;;;;;4968633;28;20413;-77
2023/09/16 04:35:46;;;;;;;14.27;13.00;;;17.60;99.90;;;;;;4967865;28;20439;-77
2023/09/16 04:38:12;;;;;;;14.03;12.83;;;17.60;99.90;;;;;;4968481;28;20499;-76
2023/09/16 04:40:40;;;;;;;14.50;13.10;;;17.50;99.90;;;;;;4968599;28;20434;-75
2023/09/16 04:43:07;;;;;;;13.73;12.50;;;17.50;99.90;;;;;;4967303;28;20467;-76
2023/09/16 04:45:33;;;;;;;12.30;11.10;;;17.50;99.90;;;;;;4967700;28;20498;-73
2023/09/16 04:47:58;;;;;;;13.17;11.97;;;17.40;99.90;;;;;;4966389;28;20437;-76
2023/09/16 04:50:25;;;;;;;14.80;13.37;;;17.40;99.90;;;;;;4967509;28;20203;-75
2023/09/16 04:52:50;;;;;;;13.87;12.67;;;17.50;99.90;;;;;;4967654;28;20200;-77
2023/09/16 04:55:16;;;;;;;11.90;10.80;;;17.50;99.90;;;;;;4967543;28;20408;-76
2023/09/16 04:57:42;;;;;;;11.90;10.80;;;17.50;99.90;;;;;;4965744;28;20612;-78
2023/09/16 05:00:08;;;;;;;13.60;12.40;;;17.50;99.90;;;;;;4966044;28;20451;-76
2023/09/16 05:02:33;;;;;;;13.57;12.17;;;17.50;99.90;;;;;;4968164;28;20200;-78
2023/09/16 05:05:00;;;;;;;14.13;12.87;;;17.50;99.90;;;;;;4967309;28;20184;-79
2023/09/16 05:07:27;;;;;;;15.43;13.93;;;17.50;99.90;;;;;;4967465;28;20208;-76
2023/09/16 05:09:53;;;;;;;16.87;15.27;;;17.40;99.90;;;;;;4967386;28;20415;-76
2023/09/16 05:12:18;;;;;;;15.23;13.73;;;17.50;99.90;;;;;;4971109;28;20417;-76
2023/09/16 05:14:46;;;;;;;15.37;13.87;;;17.40;99.90;;;;;;4966966;28;20188;-77
2023/09/16 05:17:11;;;;;;;16.00;14.50;;;17.40;99.90;;;;;;4965478;28;20225;-75
2023/09/16 05:19:37;;;;;;;16.00;14.37;;;17.40;99.90;;;;;;4966810;28;20928;-76
2023/09/16 05:22:04;;;;;;;16.20;14.60;;;17.50;99.90;;;;;;4966990;28;20260;-76
2023/09/16 05:24:33;;;;;;;16.10;14.50;;;17.50;99.90;;;;;;4967744;28;20178;-75
2023/09/16 05:26:59;;;;;;;13.87;12.57;;;17.50;99.90;;;;;;4967376;28;20471;-74
2023/09/16 05:29:25;;;;;;;15.90;14.40;;;17.40;99.90;;;;;;4965070;28;20427;-75
2023/09/16 05:31:51;;;;;;;14.47;13.17;;;17.40;99.90;;;;;;4967033;28;20408;-75
2023/09/16 05:34:17;;;;;;;17.30;15.70;;;17.40;99.90;;;;;;4967291;28;20165;-77
2023/09/16 05:36:42;;;;;;;14.17;12.80;;;17.30;99.90;;;;;;4967231;28;20440;-75
2023/09/16 05:39:08;;;;;;;15.73;14.27;;;17.30;99.90;;;;;;4965275;28;20208;-76
2023/09/16 05:41:35;;;;;;;15.40;13.87;;;17.30;99.90;;;;;;4967009;28;20191;-76
2023/09/16 05:44:01;;;;;;;14.30;13.10;;;17.40;99.90;;;;;;4966245;28;20453;-75
2023/09/16 05:46:27;;;;;;;14.37;13.10;;;17.40;99.90;;;;;;4966163;28;20444;-73
2023/09/16 05:49:06;;;;;;;14.50;13.13;;;17.50;99.90;;;;;;4966111;28;20795;-77
2023/09/16 05:51:34;;;;;;;13.63;12.30;;;17.50;99.90;;;;;;4969167;28;20409;-75
2023/09/16 05:54:00;;;;;;;15.07;13.60;;;17.60;99.90;;;;;;4969531;28;20424;-76
2023/09/16 05:56:27;;;;;;;15.10;13.67;;;17.70;99.90;;;;;;4973321;28;20455;-76
2023/09/16 05:58:52;;;;;;;16.07;14.43;;;17.70;99.90;;;;;;4968256;28;20460;-75
2023/09/16 06:01:18;;;;;;;13.70;12.30;;;17.80;99.90;;;;;;4969240;28;20424;-75
2023/09/16 06:03:43;;;;;;;15.33;13.77;;;17.70;99.90;;;;;;4968459;28;20790;-76
2023/09/16 06:06:09;;;;;;;16.30;14.63;;;17.70;99.90;;;;;;4967899;28;20623;-75
2023/09/16 06:08:35;;;;;;;15.10;13.60;;;17.80;99.90;;;;;;4967979;28;20216;-75
2023/09/16 06:11:00;;;;;;;14.97;13.57;;;17.80;99.90;;;;;;4968639;28;20189;-75
2023/09/16 06:13:26;;;;;;;15.33;13.97;;;17.80;99.90;;;;;;4967736;28;20232;-74
2023/09/16 06:15:52;;;;;;;13.37;12.17;;;17.80;99.90;;;;;;4968610;28;21157;-74
2023/09/16 06:18:18;;;;;;;14.47;13.10;;;17.80;99.90;;;;;;4967671;28;20847;-75
2023/09/16 06:20:44;;;;;;;14.53;13.20;;;17.90;99.90;;;;;;4966923;28;20417;-74
2023/09/16 06:23:09;;;;;;;13.10;11.90;;;17.90;99.90;;;;;;4968412;28;20652;-74
2023/09/16 06:25:35;;;;;;;15.73;14.23;;;18.00;99.90;;;;;;4968009;28;20240;-74
2023/09/16 06:28:01;;;;;;;16.10;14.50;;;18.00;99.90;;;;;;4967098;28;20204;-76
2023/09/16 06:30:26;;;;;;;14.57;13.17;;;18.10;99.90;;;;;;4968667;28;20495;-75
2023/09/16 06:32:55;;;;;;;16.40;14.90;;;18.10;99.90;;;;;;4968629;28;20192;-75
2023/09/16 06:35:21;;;;;;;15.37;13.83;;;18.10;99.90;;;;;;4966787;28;20260;-75
2023/09/16 06:37:46;;;;;;;15.63;14.13;;;18.20;99.90;;;;;;4967554;28;20455;-75
2023/09/16 06:40:12;;;;;;;15.67;14.27;;;18.30;99.90;;;;;;4966696;28;20181;-74
2023/09/16 06:42:37;;;;;;;14.47;13.00;;;18.40;99.90;;;;;;4968073;28;20177;-75
2023/09/16 06:45:03;;;;;;;15.00;13.60;;;18.50;99.90;;;;;;4968081;28;20764;-76
2023/09/16 06:47:29;;;;;;;17.00;15.20;;;18.60;99.90;;;;;;4968584;28;20296;-75
2023/09/16 06:49:56;;;;;;;13.67;12.37;;;18.70;99.90;;;;;;4968009;28;20200;-74
2023/09/16 06:52:22;;;;;;;15.40;13.90;;;18.80;99.90;;;;;;4967501;28;20593;-75
2023/09/16 06:54:51;;;;;;;14.40;13.10;;;18.90;99.90;;;;;;4968538;28;20421;-74
2023/09/16 06:57:16;;;;;;;13.40;12.20;;;19.00;99.90;;;;;;4966021;28;20456;-74
2023/09/16 06:59:47;;;;;;;12.40;11.30;;;19.10;99.90;;;;;;4965443;28;20560;-75
2023/09/16 07:02:13;;;;;;;12.90;11.70;;;19.20;99.90;;;;;;4967441;28;20169;-74
2023/09/16 07:04:40;;;;;;;14.33;12.83;;;19.40;99.90;;;;;;4967039;28;20420;-74
2023/09/16 07:07:06;;;;;;;14.60;13.30;;;19.50;99.90;;;;;;4966318;28;20432;-73
2023/09/16 07:09:32;;;;;;;16.67;15.07;;;19.60;99.90;;;;;;4968039;28;20452;-74
2023/09/16 07:11:57;;;;;;;17.20;15.50;;;19.60;99.90;;;;;;4967745;28;20563;-76
2023/09/16 07:14:23;;;;;;;16.97;15.33;;;19.50;99.90;;;;;;4966084;28;20181;-75
2023/09/16 07:16:48;;;;;;;14.03;12.73;;;19.60;99.90;;;;;;4967492;28;20531;-74
2023/09/16 07:19:15;;;;;;;15.90;14.37;;;19.90;99.90;;;;;;4978743;28;20189;-74
2023/09/16 07:21:40;;;;;;;13.70;12.40;;;20.10;99.90;;;;;;4982226;28;20328;-76
2023/09/16 07:24:06;;;;;;;15.83;14.37;;;20.30;99.90;;;;;;4983709;28;20432;-75
2023/09/16 07:26:32;;;;;;;17.27;15.60;;;20.40;99.90;;;;;;4978708;28;20204;-77
2023/09/16 07:28:58;;;;;;;16.07;14.53;;;20.50;99.90;;;;;;4972749;28;20421;-76
2023/09/16 07:31:23;;;;;;;17.27;15.77;;;20.20;99.90;;;;;;4970459;28;20237;-75
2023/09/16 07:33:49;;;;;;;17.33;15.73;;;20.00;99.90;;;;;;4972120;28;20673;-74
2023/09/16 07:36:15;;;;;;;15.87;14.37;;;19.90;99.90;;;;;;4977113;28;20309;-75
2023/09/16 07:38:41;;;;;;;17.33;15.50;;;19.80;99.90;;;;;;4988020;28;20193;-75
2023/09/16 07:41:06;;;;;;;16.20;14.80;;;19.90;99.90;;;;;;4987556;28;20172;-74
2023/09/16 07:43:32;;;;;;;16.17;14.73;;;19.80;99.90;;;;;;4986230;28;20445;-75
2023/09/16 07:45:59;;;;;;;15.60;14.13;;;19.90;99.90;;;;;;4988507;28;20205;-76
2023/09/16 07:48:24;;;;;;;15.53;13.93;;;20.00;99.90;;;;;;4985031;28;20197;-76
2023/09/16 07:50:50;;;;;;;15.73;14.03;;;19.90;99.90;;;;;;4985581;28;21089;-76
2023/09/16 07:53:16;;;;;;;14.80;13.50;;;19.90;99.90;;;;;;4987084;28;20205;-77
2023/09/16 07:55:41;;;;;;;14.60;13.10;;;20.10;99.90;;;;;;4988396;28;20189;-76
2023/09/16 07:58:07;;;;;;;13.70;12.50;;;20.40;99.90;;;;;;4986913;28;20203;-77
2023/09/16 08:00:33;;;;;;;12.87;11.67;;;20.60;99.90;;;;;;4989540;28;20189;-76
2023/09/16 08:02:59;;;;;;;14.60;13.20;;;20.80;99.90;;;;;;4987600;28;20632;-72
2023/09/16 08:05:25;;;;;;;15.13;13.70;;;21.00;99.90;;;;;;4967401;28;20416;-73
2023/09/16 08:07:51;;;;;;;14.30;13.00;;;21.10;99.90;;;;;;4975222;28;20207;-73
2023/09/16 08:10:16;;;;;;;12.47;11.20;;;21.40;99.90;;;;;;4978877;28;20412;-75
2023/09/16 08:12:42;;;;;;;14.10;12.80;;;21.60;99.90;;;;;;4973958;28;20236;-74
2023/09/16 08:15:08;;;;;;;14.30;13.00;;;21.50;99.90;;;;;;4968606;28;20215;-73
2023/09/16 08:17:34;;;;;;;14.37;12.97;;;21.40;99.90;;;;;;4968612;28;20296;-77
2023/09/16 08:20:00;;;;;;;13.17;12.07;;;21.50;99.90;;;;;;4968987;28;20418;-72
2023/09/16 08:22:28;;;;;;;14.03;12.57;;;21.50;99.90;;;;;;4968266;28;20216;-75
2023/09/16 08:24:53;;;;;;;13.40;12.10;;;21.60;99.90;;;;;;4968792;28;20424;-73
2023/09/16 08:27:20;;;;;;;14.10;12.60;;;21.70;99.90;;;;;;4967824;28;20452;-75
2023/09/16 08:29:46;;;;;;;13.77;11.30;;;21.80;99.90;;;;;;4967309;28;20240;-73
2023/09/16 08:32:11;;;;;;;14.10;12.70;;;22.20;99.90;;;;;;4968184;28;20841;-73
2023/09/16 08:34:37;;;;;;;13.07;11.90;;;22.20;99.90;;;;;;4968021;28;20428;-74
2023/09/16 08:37:03;;;;;;;12.27;11.17;;;22.30;99.90;;;;;;4966782;28;20209;-74
2023/09/16 08:39:28;;;;;;;13.90;12.70;;;22.50;99.90;;;;;;4967602;28;20426;-73
2023/09/16 08:42:23;;;;;;;12.73;11.50;;;22.50;99.90;;;;;;4967699;28;20842;-76
2023/09/16 08:44:52;;;;;;;12.83;11.70;;;22.40;99.90;;;;;;4967130;28;20185;-74
2023/09/16 08:47:42;;;;;;;13.13;11.67;;;22.50;99.90;;;;;;4967392;28;20456;-73
2023/09/16 08:50:10;;;;;;;11.63;10.43;;;22.50;99.90;;;;;;4963146;28;20830;-72
2023/09/16 08:52:49;;;;;;;12.07;10.90;;;22.70;99.90;;;;;;4967303;28;20428;-73
2023/09/16 08:55:15;;;;;;;12.17;11.07;;;22.70;99.90;;;;;;4967368;28;20440;-74
2023/09/16 08:57:52;;;;;;;11.37;10.17;;;22.60;99.90;;;;;;4967541;28;20502;-75
2023/09/16 09:00:19;;;;;;;11.23;10.13;;;22.70;99.90;;;;;;4965504;28;20456;-73
2023/09/16 09:02:45;;;;;;;11.43;10.10;;;22.80;99.90;;;;;;4968694;28;20507;-73
2023/09/16 09:05:12;;;;;;;11.33;10.23;;;23.00;99.90;;;;;;4968446;28;20405;-75
2023/09/16 09:07:40;;;;;;;11.20;10.10;;;23.30;99.90;;;;;;4967712;28;20417;-74
2023/09/16 09:10:06;;;;;;;10.23;9.20;;;23.20;99.90;;;;;;4968735;28;20736;-72
2023/09/16 09:12:38;;;;;;;9.63;8.70;;;23.30;99.90;;;;;;4967277;28;20409;-75
2023/09/16 09:15:07;;;;;;;9.10;8.20;;;23.30;99.90;;;;;;4967609;28;20411;-75
2023/09/16 09:17:46;;;;;;;10.20;9.30;;;23.40;99.90;;;;;;4968471;28;20563;-76
2023/09/16 09:20:17;;;;;;;9.77;8.87;;;23.40;99.90;;;;;;4967861;28;20436;-76
2023/09/16 09:22:45;;;;;;;11.13;9.97;;;23.50;99.90;;;;;;4967728;28;20413;-78
2023/09/16 09:25:11;;;;;;;9.47;8.57;;;23.60;99.90;;;;;;4968458;28;20452;-77
2023/09/16 09:27:36;;;;;;;9.13;8.33;;;23.80;99.90;;;;;;4967854;28;20441;-74
2023/09/16 09:30:04;;;;;;;9.13;8.40;;;24.00;99.90;;;;;;4966804;28;20189;-75
2023/09/16 09:32:33;;;;;;;9.77;8.80;;;24.20;99.90;;;;;;4966604;28;20212;-74
2023/09/16 09:35:04;;;;;;;8.90;8.17;;;23.90;99.90;;;;;;4967591;28;21297;-76
2023/09/16 09:37:30;;;;;;;9.60;8.70;;;23.90;99.90;;;;;;4967382;28;20534;-75
2023/09/16 09:40:12;;;;;;;8.93;8.13;;;24.20;99.90;;;;;;4967405;28;20424;-76
2023/09/16 09:42:46;;;;;;;8.90;8.07;;;24.50;99.90;;;;;;4966903;28;20703;-75
2023/09/16 09:45:13;;;;;;;7.83;7.13;;;24.50;99.90;;;;;;4967119;28;20435;-73
2023/09/16 09:47:40;;;;;;;8.37;7.57;;;24.80;99.90;;;;;;4966558;28;20417;-73
2023/09/16 09:50:07;;;;;;;8.30;7.60;;;24.60;99.90;;;;;;4996499;22;21261;-70
2023/09/16 09:52:37;;;;;;;6.83;6.33;;;24.60;99.90;;;;;;4984261;28;20419;-70
2023/09/16 09:55:03;;;;;;;7.70;7.10;;;24.50;99.90;;;;;;4984119;28;20419;-70
2023/09/16 09:57:28;;;;;;;7.40;6.70;;;24.40;99.90;;;;;;4985263;28;20447;-72
2023/09/16 09:59:57;;;;;;;7.73;7.03;;;24.60;99.90;;;;;;4983781;28;20450;-71
2023/09/16 10:02:27;;;;;;;7.73;6.77;;;24.60;99.90;;;;;;4983036;28;20176;-70
2023/09/16 10:05:01;;;;;;;6.60;6.10;;;24.60;99.90;;;;;;4984464;28;20412;-70
2023/09/16 10:07:30;;;;;;;7.13;6.53;;;24.60;99.90;;;;;;4984325;28;20411;-71
2023/09/16 10:09:56;;;;;;;6.33;5.80;;;24.60;99.90;;;;;;4984167;28;20962;-70
2023/09/16 10:12:22;;;;;;;6.93;6.33;;;24.80;99.90;;;;;;4984349;28;20416;-69
2023/09/16 10:14:48;;;;;;;6.93;6.33;;;25.00;99.90;;;;;;4984558;28;20184;-71
2023/09/16 10:17:17;;;;;;;6.50;6.00;;;25.30;99.90;;;;;;4985612;28;20211;-71
2023/09/16 10:19:44;;;;;;;6.47;5.40;;;25.30;99.90;;;;;;4985004;28;20420;-71
2023/09/16 10:22:12;;;;;;;6.00;5.47;;;25.20;99.90;;;;;;4984790;28;21015;-70
2023/09/16 10:24:39;;;;;;;6.70;6.10;;;25.20;99.90;;;;;;4982511;28;20446;-69
2023/09/16 10:27:21;;;;;;;5.80;5.33;;;25.30;99.90;;;;;;4983496;28;20621;-71
2023/09/16 10:29:49;;;;;;;6.33;5.83;;;25.50;99.90;;;;;;4982664;28;20561;-69
2023/09/16 10:32:16;;;;;;;6.83;6.23;;;25.70;99.90;;;;;;4982775;28;20522;-70
2023/09/16 10:34:46;;;;;;;7.70;6.37;;;25.90;99.90;;;;;;4982313;28;20424;-69
2023/09/16 10:37:16;;;;;;;7.37;6.77;;;26.00;99.90;;;;;;4981360;28;20769;-70
2023/09/16 10:39:43;;;;;;;5.90;5.30;;;26.10;99.90;;;;;;4982749;28;20430;-69
2023/09/16 10:42:10;;;;;;;5.73;5.33;;;26.00;99.90;;;;;;4982702;28;20424;-70
2023/09/16 10:44:37;;;;;;;5.50;5.10;;;26.40;99.90;;;;;;4980981;28;20449;-71
2023/09/16 10:47:04;;;;;;;5.23;4.83;;;27.00;99.90;;;;;;4982414;28;20424;-71
2023/09/16 10:49:30;;;;;;;5.03;4.63;;;27.60;99.90;;;;;;4981026;28;20408;-70
2023/09/16 10:52:02;;;;;;;6.23;5.63;;;28.00;99.90;;;;;;4982501;28;20896;-71
2023/09/16 10:55:03;;;;;;;4.43;4.03;;;28.00;99.90;;;;;;4982216;28;20415;-70
2023/09/16 10:57:40;;;;;;;5.43;4.93;;;28.60;99.80;;;;;;4970268;28;20466;-71
2023/09/16 11:00:10;;;;;;;5.10;4.70;;;28.80;99.40;;;;;;4981740;28;20648;-71
2023/09/16 11:02:52;;;;;;;5.10;4.70;;;28.30;99.30;;;;;;4981526;28;20893;-69
2023/09/16 11:05:18;;;;;;;4.43;4.03;;;28.60;98.90;;;;;;4982045;28;20439;-69
2023/09/16 11:07:44;;;;;;;4.07;3.73;;;29.90;97.50;;;;;;4982424;28;20416;-68
2023/09/16 11:10:10;;;;;;;4.47;4.07;;;32.10;93.30;;;;;;4982679;28;20208;-68
2023/09/16 11:12:37;;;;;;;3.50;3.20;;;32.00;91.60;;;;;;4982427;28;20584;-68
2023/09/16 11:15:09;;;;;;;3.57;3.27;;;32.80;88.40;;;;;;4980637;28;20416;-69
2023/09/16 11:17:39;;;;;;;4.03;3.30;;;34.30;82.30;;;;;;4982068;28;20533;-70
2023/09/16 11:20:24;;;;;;;3.50;3.20;;;35.50;74.70;;;;;;4982084;28;20588;-70
2023/09/16 11:22:50;;;;;;;4.07;3.00;;;35.60;72.30;;;;;;4982685;28;20858;-67
2023/09/16 11:25:16;;;;;;;3.80;3.50;;;36.50;69.90;;;;;;4982135;28;20422;-68
2023/09/16 11:27:43;;;;;;;3.37;3.17;;;37.00;66.30;;;;;;4982378;28;20416;-70
2023/09/16 11:30:16;;;;;;;3.67;3.20;;;37.20;66.50;;;;;;4981688;28;20471;-68
2023/09/16 11:33:25;;;;;;;3.80;3.30;;;37.00;64.30;;;;;;4982186;28;20424;-68
2023/09/16 11:36:13;;;;;;;2.93;2.50;;;36.80;61.20;;;;;;4982107;28;20427;-69
2023/09/16 11:39:11;;;;;;;2.93;2.30;;;36.80;61.20;;;;;;4982231;28;20455;-70
2023/09/16 11:41:37;;;;;;;3.00;2.70;;;36.20;58.90;;;;;;4948117;28;21105;-70
2023/09/16 11:44:04;;;;;;;3.33;3.10;;;36.10;59.70;;;;;;4981512;28;20503;-70
2023/09/16 11:46:31;;;;;;;2.60;2.40;;;36.10;60.70;;;;;;4983454;28;20192;-69
2023/09/16 11:49:05;;;;;;;2.33;2.10;;;35.60;60.60;;;;;;4985786;28;20435;-71
2023/09/16 11:51:33;;;;;;;2.47;2.27;;;34.70;60.40;;;;;;4984888;28;20451;-71
2023/09/16 11:54:00;;;;;;;2.43;2.20;;;35.90;58.20;;;;;;4985667;28;20626;-71
2023/09/16 11:56:27;;;;;;;2.57;2.37;;;37.00;56.30;;;;;;4985906;28;20423;-72
2023/09/16 11:58:56;;;;;;;2.37;2.20;;;35.50;57.70;;;;;;4984489;28;20477;-70
2023/09/16 12:01:34;;;;;;;2.70;2.50;;;34.60;59.80;;;;;;4985039;28;20435;-70
2023/09/16 12:04:03;;;;;;;2.70;2.50;;;34.90;60.20;;;;;;4985119;28;20407;-70
2023/09/16 12:06:31;;;;;;;2.50;2.30;;;35.10;59.50;;;;;;4985316;28;20454;-70
2023/09/16 12:08:58;;;;;;;2.80;2.57;;;33.50;62.50;;;;;;4985849;28;20415;-71
2023/09/16 12:11:25;;;;;;;2.37;2.17;;;33.70;62.90;;;;;;4984004;28;20483;-71
2023/09/16 12:13:51;;;;;;;2.53;2.33;;;34.50;61.60;;;;;;4985018;28;20757;-71
2023/09/16 12:16:16;;;;;;;2.60;2.40;;;35.30;59.90;;;;;;4985008;28;20415;-71
2023/09/16 12:18:43;;;;;;;2.70;2.50;;;36.90;58.00;;;;;;4984955;28;20189;-71
2023/09/16 12:21:09;;;;;;;2.57;2.37;;;36.60;56.70;;;;;;4985019;28;20291;-72
2023/09/16 12:23:35;;;;;;;2.63;2.43;;;34.90;58.80;;;;;;4983886;28;20512;-71
2023/09/16 12:26:01;;;;;;;2.47;2.27;;;34.00;59.60;;;;;;4985564;28;20760;-70
2023/09/16 12:28:27;;;;;;;4.97;2.87;;;33.30;61.90;;;;;;4985596;28;20239;-70
2023/09/16 12:30:55;;;;;;;3.13;2.77;;;33.70;62.00;;;;;;4985083;28;20545;-71
2023/09/16 12:33:40;;;;;;;2.53;2.33;;;34.00;62.00;;;;;;4983961;28;20208;-72
2023/09/16 12:36:06;;;;;;;2.50;2.30;;;35.40;60.10;;;;;;4985010;28;20411;-72